createdAt,value
2019-03-10T00:01:57.208Z,100161.94
2019-03-10T00:04:26.434Z,100157.27
2019-03-10T00:06:55.369Z,100170.15
2019-03-10T00:09:23.988Z,100151.39
2019-03-10T00:11:53.214Z,100158.73
2019-03-10T00:14:21.911Z,100134.38
2019-03-10T00:16:50.787Z,100147.71
2019-03-10T00:19:19.416Z,100138.30
2019-03-10T00:21:48.162Z,100130.18
2019-03-10T00:24:17.163Z,100147.34
2019-03-10T00:26:46.360Z,100127.66
2019-03-10T00:29:15.356Z,100156.88
2019-03-10T00:31:44.269Z,100156.88
2019-03-10T00:34:12.919Z,100117.22
2019-03-10T00:36:42.073Z,100145.16
2019-03-10T00:39:46.432Z,100137.36
2019-03-10T00:43:03.269Z,100136.88
2019-03-10T00:46:02.969Z,100133.53
2019-03-10T00:49:06.664Z,100205.41
2019-03-10T00:51:58.411Z,100129.47
2019-03-10T00:54:27.303Z,100127.73
2019-03-10T00:56:56.393Z,100143.93
2019-03-10T00:59:25.904Z,100115.92
2019-03-10T01:01:54.594Z,100122.87
2019-03-10T01:04:23.643Z,100122.87
2019-03-10T01:06:52.789Z,100135.72
2019-03-10T01:09:21.448Z,100149.34
2019-03-10T01:11:50.128Z,100138.71
2019-03-10T01:14:19.357Z,100181.37
2019-03-10T01:16:48.240Z,100135.80
2019-03-10T01:19:17.901Z,100174.12
2019-03-10T01:21:49.210Z,100129.47
2019-03-10T01:24:18.294Z,100136.23
2019-03-10T01:26:46.959Z,100112.36
2019-03-10T01:29:17.612Z,100112.36
2019-03-10T01:32:17.025Z,100112.84
2019-03-10T01:34:54.811Z,100126.61
2019-03-10T01:37:23.436Z,100126.61
2019-03-10T01:39:52.405Z,100138.64
2019-03-10T01:42:21.111Z,100165.41
2019-03-10T01:44:49.713Z,100161.56
2019-03-10T01:47:18.346Z,100161.56
2019-03-10T01:49:47.347Z,100124.90
2019-03-10T01:52:16.347Z,100122.50
2019-03-10T01:54:45.891Z,100152.18
2019-03-10T01:57:14.849Z,100152.18
2019-03-10T01:59:43.939Z,100116.92
2019-03-10T02:02:12.672Z,100116.47
2019-03-10T02:04:41.621Z,100114.84
2019-03-10T02:07:10.917Z,100120.02
2019-03-10T02:09:39.808Z,100120.02
2019-03-10T02:12:08.445Z,100144.55
2019-03-10T02:14:37.078Z,100135.52
2019-03-10T02:17:06.074Z,100100.16
2019-03-10T02:19:34.749Z,100100.16
2019-03-10T02:22:03.960Z,100087.98
2019-03-10T02:24:32.954Z,100120.98
2019-03-10T02:27:02.153Z,100120.98
2019-03-10T02:29:30.836Z,100131.77
2019-03-10T02:31:59.515Z,100115.30
2019-03-10T02:34:28.157Z,100109.86
2019-03-10T02:36:57.114Z,100109.86
2019-03-10T02:39:25.750Z,100130.05
2019-03-10T02:41:54.469Z,100152.43
2019-03-10T02:44:23.478Z,100152.43
2019-03-10T02:46:52.112Z,100110.80
2019-03-10T02:49:20.743Z,100110.80
2019-03-10T02:51:50.044Z,100135.83
2019-03-10T02:54:21.720Z,100116.38
2019-03-10T02:56:50.348Z,100134.92
2019-03-10T02:59:19.280Z,100113.98
2019-03-10T03:01:48.577Z,100118.29
2019-03-10T03:04:17.231Z,100118.29
2019-03-10T03:06:47.033Z,100129.28
2019-03-10T03:09:16.282Z,100139.31
2019-03-10T03:11:45.574Z,100150.55
2019-03-10T03:14:14.780Z,100132.50
2019-03-10T03:16:43.487Z,100142.73
2019-03-10T03:19:12.482Z,100136.69
2019-03-10T03:21:43.553Z,100153.39
2019-03-10T03:24:12.188Z,100153.39
2019-03-10T03:26:40.826Z,100146.81
2019-03-10T03:29:09.555Z,100146.81
2019-03-10T03:31:38.249Z,100140.74
2019-03-10T03:34:07.267Z,100143.27
2019-03-10T03:36:37.530Z,100143.27
2019-03-10T03:39:19.456Z,100166.45
2019-03-10T03:41:48.770Z,100172.03
2019-03-10T03:44:17.456Z,100202.94
2019-03-10T03:46:46.453Z,100202.94
2019-03-10T03:49:15.456Z,100188.03
2019-03-10T03:51:44.074Z,100188.03
2019-03-10T03:54:12.732Z,100181.58
2019-03-10T03:56:42.004Z,100181.58
2019-03-10T03:59:10.903Z,100171.56
2019-03-10T04:01:52.535Z,100181.92
2019-03-10T04:04:21.223Z,100181.63
2019-03-10T04:06:49.906Z,100181.63
2019-03-10T04:09:18.596Z,100185.55
2019-03-10T04:11:47.234Z,100196.28
2019-03-10T04:14:16.439Z,100184.20
2019-03-10T04:16:45.092Z,100172.88
2019-03-10T04:19:14.312Z,100184.05
2019-03-10T04:21:43.340Z,100196.50
2019-03-10T04:24:12.222Z,100171.45
2019-03-10T04:26:41.201Z,100176.54
2019-03-10T04:29:10.290Z,100173.14
2019-03-10T04:31:39.290Z,100176.10
2019-03-10T04:34:08.277Z,100168.52
2019-03-10T04:36:37.896Z,100168.52
2019-03-10T04:39:07.435Z,100188.64
2019-03-10T04:41:36.077Z,100164.65
2019-03-10T04:44:04.734Z,100161.58
2019-03-10T04:46:33.390Z,100161.58
2019-03-10T04:49:02.038Z,100168.38
2019-03-10T04:51:31.039Z,100168.38
2019-03-10T04:53:59.653Z,100175.27
2019-03-10T04:57:03.717Z,100217.69
2019-03-10T04:59:32.635Z,100185.98
2019-03-10T05:02:01.615Z,100198.75
2019-03-10T05:04:31.650Z,100212.16
2019-03-10T05:07:00.550Z,100201.50
2019-03-10T05:09:29.518Z,100195.90
2019-03-10T05:11:58.147Z,100203.78
2019-03-10T05:14:27.097Z,100203.78
2019-03-10T05:16:55.741Z,100199.89
2019-03-10T05:19:24.370Z,100210.13
2019-03-10T05:21:53.270Z,100210.13
2019-03-10T05:24:22.553Z,100210.49
2019-03-10T05:26:51.230Z,100225.54
2019-03-10T05:29:19.863Z,100273.80
2019-03-10T05:31:48.523Z,100254.62
2019-03-10T05:34:17.505Z,100243.81
2019-03-10T05:36:46.399Z,100234.12
2019-03-10T05:39:15.288Z,100227.91
2019-03-10T05:41:44.189Z,100229.42
2019-03-10T05:44:12.852Z,100227.63
2019-03-10T05:46:42.164Z,100225.56
2019-03-10T05:49:11.192Z,100233.45
2019-03-10T05:51:40.774Z,100215.75
2019-03-10T05:54:09.585Z,100221.91
2019-03-10T05:56:38.757Z,100205.31
2019-03-10T05:59:07.754Z,100209.15
2019-03-10T06:01:36.743Z,100207.34
2019-03-10T06:04:08.548Z,100197.73
2019-03-10T06:06:37.903Z,100195.19
2019-03-10T06:09:07.413Z,100189.72
2019-03-10T06:11:36.405Z,100190.72
2019-03-10T06:14:05.399Z,100199.39
2019-03-10T06:16:34.044Z,100192.13
2019-03-10T06:19:02.980Z,100199.15
2019-03-10T06:21:32.309Z,100192.47
2019-03-10T06:24:00.957Z,100203.27
2019-03-10T06:26:29.958Z,100188.02
2019-03-10T06:28:59.262Z,100193.52
2019-03-10T06:31:27.913Z,100185.00
2019-03-10T06:33:56.842Z,100181.20
2019-03-10T06:36:25.955Z,100203.48
2019-03-10T06:38:55.406Z,100196.75
2019-03-10T06:41:24.951Z,100188.02
2019-03-10T06:43:53.962Z,100174.32
2019-03-10T06:46:22.955Z,100180.45
2019-03-10T06:48:52.241Z,100171.80
2019-03-10T06:51:21.229Z,100171.80
2019-03-10T06:53:50.245Z,100169.73
2019-03-10T06:56:19.202Z,100172.36
2019-03-10T06:58:47.902Z,100172.36
2019-03-10T07:01:16.802Z,100166.46
2019-03-10T07:03:45.785Z,100172.44
2019-03-10T07:06:14.462Z,100158.83
2019-03-10T07:08:44.804Z,100160.92
2019-03-10T07:11:14.097Z,100164.81
2019-03-10T07:13:43.208Z,100156.23
2019-03-10T07:16:11.911Z,100158.09
2019-03-10T07:18:43.355Z,100148.28
2019-03-10T07:21:12.154Z,100150.44
2019-03-10T07:23:41.528Z,100150.44
2019-03-10T07:26:10.524Z,100145.67
2019-03-10T07:28:44.155Z,100142.41
2019-03-10T07:31:29.480Z,100142.41
2019-03-10T07:34:17.422Z,100133.57
2019-03-10T07:37:04.666Z,100141.00
2019-03-10T07:39:43.955Z,100149.67
2019-03-10T07:42:31.583Z,100146.33
2019-03-10T07:45:18.641Z,100143.74
2019-03-10T07:47:55.679Z,100144.44
2019-03-10T07:50:40.762Z,100145.39
2019-03-10T07:53:36.237Z,100139.10
2019-03-10T07:56:11.755Z,100128.69
2019-03-10T07:59:00.306Z,100140.41
2019-03-10T08:01:37.286Z,100123.94
2019-03-10T08:04:31.473Z,100123.94
2019-03-10T08:07:25.254Z,100123.55
2019-03-10T08:10:12.473Z,100114.71
2019-03-10T08:13:15.572Z,100119.71
2019-03-10T08:16:02.052Z,100104.51
2019-03-10T08:18:50.318Z,100109.00
2019-03-10T08:21:34.462Z,100109.00
2019-03-10T08:24:09.881Z,100121.91
2019-03-10T08:26:58.959Z,100095.88
2019-03-10T08:29:56.123Z,100095.88
2019-03-10T08:32:43.850Z,100095.98
2019-03-10T08:35:18.289Z,100103.27
2019-03-10T08:38:05.237Z,100098.47
2019-03-10T08:40:56.106Z,100079.11
2019-03-10T08:43:37.845Z,100079.11
2019-03-10T08:46:20.200Z,100076.02
2019-03-10T08:48:56.715Z,100073.23
2019-03-10T08:51:43.584Z,100077.35
2019-03-10T08:54:17.492Z,100061.79
2019-03-10T08:57:04.778Z,100064.61
2019-03-10T08:59:48.767Z,100062.77
2019-03-10T09:02:35.981Z,100055.95
2019-03-10T09:05:33.405Z,100046.45
2019-03-10T09:08:21.088Z,100058.97
2019-03-10T09:11:06.105Z,100056.38
2019-03-10T09:13:44.252Z,100053.79
2019-03-10T09:16:25.349Z,100043.42
2019-03-10T09:19:16.160Z,100043.43
2019-03-10T09:21:57.248Z,100024.38
2019-03-10T09:24:51.074Z,100024.38
2019-03-10T09:27:37.078Z,100032.61
2019-03-10T09:30:24.060Z,100046.02
2019-03-10T09:33:07.938Z,100047.68
2019-03-10T09:35:55.884Z,100054.11
2019-03-10T09:38:44.220Z,100038.16
2019-03-10T09:41:43.938Z,100024.84
2019-03-10T09:44:35.364Z,100024.84
2019-03-10T09:47:21.523Z,100030.02
2019-03-10T09:49:58.231Z,100033.02
2019-03-10T09:52:40.804Z,100028.64
2019-03-10T09:55:27.410Z,100023.03
2019-03-10T09:58:15.089Z,100020.45
2019-03-10T10:00:57.794Z,100012.26
2019-03-10T10:03:45.466Z,100004.55
2019-03-10T10:06:34.079Z,100001.97
2019-03-10T10:09:27.554Z,100005.42
2019-03-10T10:12:13.928Z,99997.62
2019-03-10T10:15:17.013Z,100001.88
2019-03-10T10:18:03.547Z,99998.47
2019-03-10T10:20:57.883Z,99995.95
2019-03-10T10:23:32.390Z,99997.23
2019-03-10T10:26:11.693Z,99981.67
2019-03-10T10:28:56.558Z,99987.73
2019-03-10T10:31:41.279Z,99989.91
2019-03-10T10:34:17.326Z,99978.65
2019-03-10T10:37:04.195Z,99966.11
2019-03-10T10:39:48.851Z,99977.38
2019-03-10T10:42:31.944Z,99964.86
2019-03-10T10:45:26.695Z,99973.93
2019-03-10T10:48:05.810Z,99969.13
2019-03-10T10:51:11.944Z,99969.11
2019-03-10T10:53:50.262Z,99970.94
2019-03-10T10:56:37.895Z,99961.87
2019-03-10T10:59:16.533Z,99956.68
2019-03-10T11:02:07.398Z,99958.39
2019-03-10T11:05:01.429Z,99966.17
2019-03-10T11:07:49.766Z,99947.55
2019-03-10T11:10:41.321Z,99941.07
2019-03-10T11:13:22.673Z,99935.02
2019-03-10T11:15:59.307Z,99919.05
2019-03-10T11:18:36.989Z,99926.81
2019-03-10T11:21:11.326Z,99918.05
2019-03-10T11:23:47.835Z,99911.59
2019-03-10T11:26:28.178Z,99920.14
2019-03-10T11:29:15.315Z,99919.23
2019-03-10T11:32:00.547Z,99901.63
2019-03-10T11:34:37.633Z,99902.00
2019-03-10T11:37:23.754Z,99894.09
2019-03-10T11:40:11.405Z,99896.81
2019-03-10T11:42:57.193Z,99882.09
2019-03-10T11:45:39.639Z,99877.96
2019-03-10T11:48:27.308Z,99869.85
2019-03-10T11:51:08.237Z,99871.69
2019-03-10T11:53:53.270Z,99865.11
2019-03-10T11:56:38.912Z,99867.45
2019-03-10T11:59:23.978Z,99868.94
2019-03-10T12:02:16.290Z,99858.33
2019-03-10T12:05:12.908Z,99862.20
2019-03-10T12:07:51.219Z,99841.13
2019-03-10T12:10:21.599Z,99839.08
2019-03-10T12:12:50.426Z,99841.19
2019-03-10T12:15:19.537Z,99835.34
2019-03-10T12:17:48.185Z,99833.08
2019-03-10T12:20:17.121Z,99826.89
2019-03-10T12:22:45.764Z,99832.28
2019-03-10T12:25:14.811Z,99828.21
2019-03-10T12:27:43.871Z,99822.72
2019-03-10T12:30:13.003Z,99811.79
2019-03-10T12:32:41.996Z,99808.42
2019-03-10T12:35:10.689Z,99803.12
2019-03-10T12:37:39.654Z,99786.86
2019-03-10T12:40:08.956Z,99781.99
2019-03-10T12:42:37.585Z,99781.11
2019-03-10T12:45:07.275Z,99772.19
2019-03-10T12:47:35.919Z,99777.05
2019-03-10T12:50:05.287Z,99775.88
2019-03-10T12:52:34.562Z,99767.56
2019-03-10T12:55:03.255Z,99771.47
2019-03-10T12:57:32.220Z,99764.16
2019-03-10T13:00:01.422Z,99764.84
2019-03-10T13:02:30.311Z,99764.59
2019-03-10T13:04:59.205Z,99762.16
2019-03-10T13:07:28.096Z,99757.27
2019-03-10T13:09:56.987Z,99746.69
2019-03-10T13:12:25.978Z,99740.51
2019-03-10T13:14:59.463Z,99741.41
2019-03-10T13:17:25.296Z,99735.53
2019-03-10T13:19:54.012Z,99735.39
2019-03-10T13:22:22.976Z,99732.26
2019-03-10T13:24:52.175Z,99732.55
2019-03-10T13:27:21.477Z,99736.06
2019-03-10T13:29:50.469Z,99727.01
2019-03-10T13:32:19.116Z,99715.50
2019-03-10T13:34:47.760Z,99710.21
2019-03-10T13:37:16.734Z,99695.39
2019-03-10T13:39:45.639Z,99698.19
2019-03-10T13:42:14.551Z,99689.03
2019-03-10T13:44:43.415Z,99693.49
2019-03-10T13:47:12.414Z,99691.21
2019-03-10T13:49:41.130Z,99687.06
2019-03-10T13:52:09.821Z,99685.84
2019-03-10T13:54:38.465Z,99684.52
2019-03-10T13:57:07.362Z,99674.13
2019-03-10T13:59:36.243Z,99675.27
2019-03-10T14:02:04.979Z,99675.45
2019-03-10T14:04:33.945Z,99671.17
2019-03-10T14:07:03.474Z,99668.98
2019-03-10T14:09:32.324Z,99671.11
2019-03-10T14:12:01.212Z,99672.36
2019-03-10T14:14:30.211Z,99674.81
2019-03-10T14:16:59.821Z,99672.87
2019-03-10T14:19:28.548Z,99673.48
2019-03-10T14:21:57.596Z,99655.27
2019-03-10T14:24:26.599Z,99654.22
2019-03-10T14:26:55.267Z,99650.78
2019-03-10T14:29:24.575Z,99648.56
2019-03-10T14:31:53.590Z,99645.89
2019-03-10T14:34:22.247Z,99657.59
2019-03-10T14:36:51.165Z,99661.83
2019-03-10T14:39:20.145Z,99657.31
2019-03-10T14:41:48.818Z,99650.59
2019-03-10T14:44:17.463Z,99630.14
2019-03-10T14:46:47.666Z,99630.14
2019-03-10T14:49:23.080Z,99642.17
2019-03-10T14:51:46.957Z,99648.58
2019-03-10T14:54:15.592Z,99648.58
2019-03-10T14:56:44.256Z,99635.41
2019-03-10T14:59:13.220Z,99644.08
2019-03-10T15:01:41.902Z,99648.41
2019-03-10T15:04:11.205Z,99648.86
2019-03-10T15:06:40.205Z,99648.39
2019-03-10T15:09:09.520Z,99637.73
2019-03-10T15:11:38.148Z,99645.45
2019-03-10T15:14:06.845Z,99638.63
2019-03-10T15:16:35.597Z,99642.98
2019-03-10T15:19:04.555Z,99634.76
2019-03-10T15:21:33.852Z,99630.91
2019-03-10T15:24:02.508Z,99629.17
2019-03-10T15:26:31.726Z,99627.91
2019-03-10T15:29:01.054Z,99627.91
2019-03-10T15:31:29.982Z,99629.67
2019-03-10T15:33:58.732Z,99627.10
2019-03-10T15:36:29.298Z,99630.59
2019-03-10T15:38:57.987Z,99630.59
2019-03-10T15:41:27.256Z,99634.97
2019-03-10T15:43:56.542Z,99633.26
2019-03-10T15:46:25.441Z,99637.14
2019-03-10T15:48:54.407Z,99634.14
2019-03-10T15:51:23.423Z,99631.54
2019-03-10T15:53:52.265Z,99627.65
2019-03-10T15:56:20.914Z,99628.56
2019-03-10T15:58:50.305Z,99626.83
2019-03-10T16:01:18.965Z,99627.70
2019-03-10T16:03:47.873Z,99631.19
2019-03-10T16:06:16.867Z,99627.33
2019-03-10T16:08:45.761Z,99622.59
2019-03-10T16:11:14.631Z,99624.28
2019-03-10T16:13:43.391Z,99623.48
2019-03-10T16:16:12.330Z,99625.21
2019-03-10T16:18:40.958Z,99627.35
2019-03-10T16:21:09.921Z,99624.78
2019-03-10T16:23:39.217Z,99624.38
2019-03-10T16:26:07.815Z,99631.30
2019-03-10T16:28:37.116Z,99629.99
2019-03-10T16:31:05.982Z,99633.47
2019-03-10T16:33:34.633Z,99634.75
2019-03-10T16:36:03.547Z,99628.72
2019-03-10T16:38:32.543Z,99619.66
2019-03-10T16:41:01.184Z,99627.87
2019-03-10T16:43:30.136Z,99623.98
2019-03-10T16:45:58.839Z,99623.12
2019-03-10T16:48:27.463Z,99631.73
2019-03-10T16:50:56.095Z,99641.69
2019-03-10T16:53:25.311Z,99641.25
2019-03-10T16:56:02.438Z,99640.84
2019-03-10T16:58:24.987Z,99640.83
2019-03-10T17:00:53.617Z,99640.83
2019-03-10T17:03:22.907Z,99639.11
2019-03-10T17:05:51.568Z,99652.87
2019-03-10T17:08:20.187Z,99652.87
2019-03-10T17:10:48.887Z,99660.61
2019-03-10T17:13:17.872Z,99663.19
2019-03-10T17:15:46.954Z,99677.82
2019-03-10T17:18:15.957Z,99682.09
2019-03-10T17:20:45.355Z,99682.09
2019-03-10T17:23:14.249Z,99677.39
2019-03-10T17:25:43.233Z,99686.86
2019-03-10T17:28:12.228Z,99672.66
2019-03-10T17:30:41.058Z,99688.17
2019-03-10T17:33:10.001Z,99693.33
2019-03-10T17:35:38.902Z,99698.06
2019-03-10T17:38:07.551Z,99697.64
2019-03-10T17:40:36.581Z,99703.63
2019-03-10T17:43:08.020Z,99703.63
2019-03-10T17:45:37.341Z,99712.27
2019-03-10T17:48:06.335Z,99716.14
2019-03-10T17:50:35.230Z,99717.37
2019-03-10T17:53:03.838Z,99721.59
2019-03-10T17:55:32.605Z,99726.80
2019-03-10T17:58:01.590Z,99728.08
2019-03-10T18:00:31.094Z,99737.98
2019-03-10T18:03:00.002Z,99738.02
2019-03-10T18:05:28.994Z,99738.02
2019-03-10T18:07:58.301Z,99750.88
2019-03-10T18:10:27.171Z,99759.91
2019-03-10T18:12:56.066Z,99761.20
2019-03-10T18:15:25.369Z,99770.66
2019-03-10T18:17:54.232Z,99772.34
2019-03-10T18:20:23.263Z,99782.66
2019-03-10T18:22:52.548Z,99789.16
2019-03-10T18:25:21.166Z,99789.16
2019-03-10T18:27:50.134Z,99796.04
2019-03-10T18:30:19.021Z,99789.97
2019-03-10T18:32:48.634Z,99800.70
2019-03-10T18:35:17.343Z,99802.01
2019-03-10T18:37:45.960Z,99802.01
2019-03-10T18:40:18.547Z,99808.83
2019-03-10T18:42:47.265Z,99808.83
2019-03-10T18:45:17.281Z,99825.59
2019-03-10T18:47:46.101Z,99824.72
2019-03-10T18:50:17.951Z,99824.72
2019-03-10T18:52:46.727Z,99823.73
2019-03-10T18:55:15.680Z,99826.36
2019-03-10T18:57:44.630Z,99839.20
2019-03-10T19:00:18.652Z,99831.86
2019-03-10T19:02:47.354Z,99846.06
2019-03-10T19:05:16.305Z,99844.41
2019-03-10T19:07:45.703Z,99844.41
2019-03-10T19:10:14.439Z,99852.61
2019-03-10T19:12:43.711Z,99858.97
2019-03-10T19:15:14.530Z,99864.13
2019-03-10T19:17:43.184Z,99867.98
2019-03-10T19:20:12.499Z,99867.98
2019-03-10T19:22:41.443Z,99879.67
2019-03-10T19:25:11.090Z,99889.11
2019-03-10T19:27:39.739Z,99889.11
2019-03-10T19:30:10.524Z,99898.50
2019-03-10T19:32:39.434Z,99898.50
2019-03-10T19:35:08.511Z,99918.39
2019-03-10T19:37:37.169Z,99918.39
2019-03-10T19:40:06.825Z,99913.22
2019-03-10T19:42:35.434Z,99912.77
2019-03-10T19:45:04.198Z,99917.09
2019-03-10T19:47:32.846Z,99929.95
2019-03-10T19:50:02.086Z,99929.95
2019-03-10T19:52:31.377Z,99934.20
2019-03-10T19:55:00.679Z,99941.49
2019-03-10T19:57:29.327Z,99953.91
2019-03-10T19:59:58.262Z,99953.91
2019-03-10T20:02:26.913Z,99951.67
2019-03-10T20:04:56.120Z,99952.00
2019-03-10T20:07:25.339Z,99955.01
2019-03-10T20:09:54.002Z,99967.02
2019-03-10T20:12:22.636Z,99971.77
2019-03-10T20:14:51.239Z,99972.14
2019-03-10T20:17:20.495Z,99974.22
2019-03-10T20:19:49.146Z,99974.22
2019-03-10T20:22:17.751Z,99984.02
2019-03-10T20:24:46.745Z,99981.05
2019-03-10T20:27:15.586Z,99992.53
2019-03-10T20:29:44.179Z,99992.53
2019-03-10T20:32:14.172Z,100003.36
2019-03-10T20:34:43.087Z,100009.80
2019-03-10T20:37:11.735Z,100011.47
2019-03-10T20:39:40.623Z,100022.28
2019-03-10T20:42:12.094Z,100032.03
2019-03-10T20:44:40.567Z,100031.20
2019-03-10T20:47:09.238Z,100035.45
2019-03-10T20:49:37.875Z,100035.45
2019-03-10T20:52:06.507Z,100042.79
2019-03-10T20:54:35.144Z,100035.89
2019-03-10T20:57:04.077Z,100064.97
2019-03-10T20:59:32.997Z,100060.59
2019-03-10T21:02:01.871Z,100072.69
2019-03-10T21:04:30.791Z,100065.80
2019-03-10T21:07:00.064Z,100065.80
2019-03-10T21:09:29.055Z,100076.91
2019-03-10T21:11:58.127Z,100076.91
2019-03-10T21:14:26.788Z,100076.02
2019-03-10T21:16:55.758Z,100084.98
2019-03-10T21:19:25.168Z,100097.77
2019-03-10T21:21:54.432Z,100101.73
2019-03-10T21:24:23.429Z,100108.50
2019-03-10T21:26:52.042Z,100111.79
2019-03-10T21:29:21.317Z,100113.06
2019-03-10T21:31:50.637Z,100113.06
2019-03-10T21:34:19.617Z,100119.43
2019-03-10T21:36:49.075Z,100128.45
2019-03-10T21:39:18.008Z,100129.37
2019-03-10T21:41:46.895Z,100143.11
2019-03-10T21:44:25.896Z,100138.77
2019-03-10T21:46:46.319Z,100157.21
2019-03-10T21:49:15.208Z,100156.20
2019-03-10T21:51:44.266Z,100160.98
2019-03-10T21:54:13.194Z,100166.56
2019-03-10T21:56:41.852Z,100176.95
2019-03-10T21:59:10.606Z,100178.17
2019-03-10T22:01:39.264Z,100180.27
2019-03-10T22:04:07.869Z,100185.73
2019-03-10T22:06:36.842Z,100194.28
2019-03-10T22:09:06.543Z,100199.06
2019-03-10T22:11:35.667Z,100208.42
2019-03-10T22:14:04.637Z,100216.52
2019-03-10T22:16:33.355Z,100215.23
2019-03-10T22:19:02.313Z,100218.09
2019-03-10T22:21:31.020Z,100219.08
2019-03-10T22:23:59.918Z,100227.72
2019-03-10T22:26:28.837Z,100231.77
2019-03-10T22:28:58.351Z,100245.65
2019-03-10T22:31:27.698Z,100249.14
2019-03-10T22:33:56.892Z,100254.69
2019-03-10T22:36:25.892Z,100266.30
2019-03-10T22:38:54.830Z,100258.08
2019-03-10T22:41:23.665Z,100261.55
2019-03-10T22:43:52.582Z,100269.98
2019-03-10T22:46:21.449Z,100277.44
2019-03-10T22:48:50.450Z,100277.22
2019-03-10T22:51:19.744Z,100278.88
2019-03-10T22:53:48.740Z,100287.52
2019-03-10T22:56:17.832Z,100292.62
2019-03-10T22:58:46.827Z,100299.39
2019-03-10T23:01:15.923Z,100295.51
2019-03-10T23:03:44.820Z,100304.78
2019-03-10T23:06:13.705Z,100315.08
2019-03-10T23:08:43.019Z,100315.34
2019-03-10T23:11:12.017Z,100310.24
2019-03-10T23:13:41.203Z,100320.79
2019-03-10T23:16:10.314Z,100315.31
2019-03-10T23:18:39.290Z,100313.55
2019-03-10T23:21:07.959Z,100319.42
2019-03-10T23:23:36.871Z,100322.39
2019-03-10T23:26:05.526Z,100322.39
2019-03-10T23:28:34.858Z,100327.90
2019-03-10T23:31:03.751Z,100322.36
2019-03-10T23:33:32.389Z,100337.33
2019-03-10T23:36:01.036Z,100329.06
2019-03-10T23:38:30.028Z,100332.88
2019-03-10T23:40:59.545Z,100330.52
2019-03-10T23:43:28.227Z,100331.38
2019-03-10T23:45:57.093Z,100340.36
2019-03-10T23:48:25.689Z,100340.77
2019-03-10T23:50:54.675Z,100342.95
2019-03-10T23:53:23.327Z,100342.95
2019-03-10T23:55:52.557Z,100342.51
2019-03-10T23:58:21.209Z,100342.84
